sensor_id;sensor_type;location;lat;lon;timestamp;P1;durP1;ratioP1;P2;durP2;ratioP2
55312;SDS011;46892;45.668;11.756;2023-06-10T00:01:37;20.13;;;18.07;;
55312;SDS011;46892;45.668;11.756;2023-06-10T00:04:03;19.50;;;17.40;;
55312;SDS011;46892;45.668;11.756;2023-06-10T00:06:29;19.80;;;17.80;;
55312;SDS011;46892;45.668;11.756;2023-06-10T00:09:00;18.67;;;16.77;;
55312;SDS011;46892;45.668;11.756;2023-06-10T00:11:33;20.23;;;18.13;;
55312;SDS011;46892;45.668;11.756;2023-06-10T00:13:59;20.13;;;18.07;;
55312;SDS011;46892;45.668;11.756;2023-06-10T00:16:25;20.50;;;18.50;;
55312;SDS011;46892;45.668;11.756;2023-06-10T00:18:51;22.90;;;20.40;;
55312;SDS011;46892;45.668;11.756;2023-06-10T00:21:17;22.43;;;20.07;;
55312;SDS011;46892;45.668;11.756;2023-06-10T00:23:44;22.60;;;20.30;;
55312;SDS011;46892;45.668;11.756;2023-06-10T00:26:09;22.60;;;20.20;;
55312;SDS011;46892;45.668;11.756;2023-06-10T00:28:35;21.87;;;18.80;;
55312;SDS011;46892;45.668;11.756;2023-06-10T00:31:01;31.47;;;18.30;;
55312;SDS011;46892;45.668;11.756;2023-06-10T00:33:27;21.53;;;18.10;;
55312;SDS011;46892;45.668;11.756;2023-06-10T00:35:53;20.93;;;18.73;;
55312;SDS011;46892;45.668;11.756;2023-06-10T00:38:19;21.97;;;18.27;;
55312;SDS011;46892;45.668;11.756;2023-06-10T00:40:45;22.90;;;18.50;;
55312;SDS011;46892;45.668;11.756;2023-06-10T00:43:11;23.97;;;18.53;;
55312;SDS011;46892;45.668;11.756;2023-06-10T00:45:37;20.60;;;18.47;;
55312;SDS011;46892;45.668;11.756;2023-06-10T00:48:02;20.90;;;18.70;;
55312;SDS011;46892;45.668;11.756;2023-06-10T00:50:29;20.13;;;18.13;;
55312;SDS011;46892;45.668;11.756;2023-06-10T00:52:56;20.00;;;17.90;;
55312;SDS011;46892;45.668;11.756;2023-06-10T00:55:22;24.50;;;18.03;;
55312;SDS011;46892;45.668;11.756;2023-06-10T00:57:49;19.87;;;17.30;;
55312;SDS011;46892;45.668;11.756;2023-06-10T01:00:16;21.57;;;18.57;;
55312;SDS011;46892;45.668;11.756;2023-06-10T01:02:42;25.37;;;19.27;;
55312;SDS011;46892;45.668;11.756;2023-06-10T01:05:08;20.77;;;17.87;;
55312;SDS011;46892;45.668;11.756;2023-06-10T01:13:00;20.93;;;15.57;;
55312;SDS011;46892;45.668;11.756;2023-06-10T01:15:32;22.10;;;18.30;;
55312;SDS011;46892;45.668;11.756;2023-06-10T01:18:02;21.80;;;17.03;;
55312;SDS011;46892;45.668;11.756;2023-06-10T01:20:29;21.00;;;16.37;;
55312;SDS011;46892;45.668;11.756;2023-06-10T01:22:57;19.03;;;16.97;;
55312;SDS011;46892;45.668;11.756;2023-06-10T01:25:28;22.17;;;17.83;;
55312;SDS011;46892;45.668;11.756;2023-06-10T01:28:10;23.08;;;19.15;;
55312;SDS011;46892;45.668;11.756;2023-06-10T01:33:18;20.53;;;18.27;;
55312;SDS011;46892;45.668;11.756;2023-06-10T01:35:52;24.40;;;19.40;;
55312;SDS011;46892;45.668;11.756;2023-06-10T01:38:19;22.03;;;19.80;;
55312;SDS011;46892;45.668;11.756;2023-06-10T01:40:47;23.07;;;20.63;;
55312;SDS011;46892;45.668;11.756;2023-06-10T01:43:14;22.97;;;20.63;;
55312;SDS011;46892;45.668;11.756;2023-06-10T01:45:40;24.20;;;21.80;;
55312;SDS011;46892;45.668;11.756;2023-06-10T01:48:06;25.00;;;22.33;;
55312;SDS011;46892;45.668;11.756;2023-06-10T01:50:31;22.97;;;20.60;;
55312;SDS011;46892;45.668;11.756;2023-06-10T01:52:58;23.90;;;20.83;;
55312;SDS011;46892;45.668;11.756;2023-06-10T01:55:24;27.43;;;21.97;;
55312;SDS011;46892;45.668;11.756;2023-06-10T01:57:50;25.23;;;22.53;;
55312;SDS011;46892;45.668;11.756;2023-06-10T02:00:16;24.97;;;22.37;;
55312;SDS011;46892;45.668;11.756;2023-06-10T02:02:42;24.33;;;21.87;;
55312;SDS011;46892;45.668;11.756;2023-06-10T02:05:08;24.37;;;21.97;;
55312;SDS011;46892;45.668;11.756;2023-06-10T02:07:34;30.90;;;22.93;;
55312;SDS011;46892;45.668;11.756;2023-06-10T02:10:00;26.33;;;23.43;;
55312;SDS011;46892;45.668;11.756;2023-06-10T02:12:25;28.03;;;22.60;;
55312;SDS011;46892;45.668;11.756;2023-06-10T02:14:51;27.97;;;25.00;;
55312;SDS011;46892;45.668;11.756;2023-06-10T02:17:17;28.37;;;25.13;;
55312;SDS011;46892;45.668;11.756;2023-06-10T02:19:43;28.53;;;24.47;;
55312;SDS011;46892;45.668;11.756;2023-06-10T02:22:09;31.60;;;24.03;;
55312;SDS011;46892;45.668;11.756;2023-06-10T02:24:35;27.03;;;24.13;;
55312;SDS011;46892;45.668;11.756;2023-06-10T02:27:03;26.70;;;23.10;;
55312;SDS011;46892;45.668;11.756;2023-06-10T02:29:32;27.30;;;23.33;;
55312;SDS011;46892;45.668;11.756;2023-06-10T02:32:01;28.87;;;23.47;;
55312;SDS011;46892;45.668;11.756;2023-06-10T02:34:28;25.17;;;21.90;;
55312;SDS011;46892;45.668;11.756;2023-06-10T02:36:53;25.67;;;22.67;;
55312;SDS011;46892;45.668;11.756;2023-06-10T02:39:19;27.00;;;22.70;;
55312;SDS011;46892;45.668;11.756;2023-06-10T02:41:46;26.53;;;22.67;;
55312;SDS011;46892;45.668;11.756;2023-06-10T02:44:12;24.13;;;21.60;;
55312;SDS011;46892;45.668;11.756;2023-06-10T02:46:37;26.70;;;21.50;;
55312;SDS011;46892;45.668;11.756;2023-06-10T02:49:03;23.70;;;21.20;;
55312;SDS011;46892;45.668;11.756;2023-06-10T02:51:29;23.60;;;21.07;;
55312;SDS011;46892;45.668;11.756;2023-06-10T02:53:55;24.03;;;20.43;;
55312;SDS011;46892;45.668;11.756;2023-06-10T02:56:20;22.53;;;20.00;;
55312;SDS011;46892;45.668;11.756;2023-06-10T02:58:46;28.73;;;23.77;;
55312;SDS011;46892;45.668;11.756;2023-06-10T03:01:13;25.87;;;23.07;;
55312;SDS011;46892;45.668;11.756;2023-06-10T03:03:39;34.60;;;25.70;;
55312;SDS011;46892;45.668;11.756;2023-06-10T03:06:07;31.40;;;26.87;;
55312;SDS011;46892;45.668;11.756;2023-06-10T03:08:35;33.73;;;26.87;;
55312;SDS011;46892;45.668;11.756;2023-06-10T03:11:02;33.33;;;26.07;;
55312;SDS011;46892;45.668;11.756;2023-06-10T03:13:27;33.53;;;26.30;;
55312;SDS011;46892;45.668;11.756;2023-06-10T03:15:53;30.90;;;27.43;;
55312;SDS011;46892;45.668;11.756;2023-06-10T03:18:19;30.57;;;27.27;;
55312;SDS011;46892;45.668;11.756;2023-06-10T03:20:45;32.50;;;25.87;;
55312;SDS011;46892;45.668;11.756;2023-06-10T03:23:11;32.67;;;27.17;;
55312;SDS011;46892;45.668;11.756;2023-06-10T03:25:37;33.00;;;26.37;;
55312;SDS011;46892;45.668;11.756;2023-06-10T03:28:02;31.80;;;28.40;;
55312;SDS011;46892;45.668;11.756;2023-06-10T03:30:28;35.03;;;28.43;;
55312;SDS011;46892;45.668;11.756;2023-06-10T03:32:54;38.00;;;29.73;;
55312;SDS011;46892;45.668;11.756;2023-06-10T03:35:20;35.53;;;31.37;;
55312;SDS011;46892;45.668;11.756;2023-06-10T03:37:45;34.77;;;30.97;;
55312;SDS011;46892;45.668;11.756;2023-06-10T03:40:11;34.70;;;30.90;;
55312;SDS011;46892;45.668;11.756;2023-06-10T03:42:37;35.87;;;30.70;;
55312;SDS011;46892;45.668;11.756;2023-06-10T03:45:03;43.10;;;32.47;;
55312;SDS011;46892;45.668;11.756;2023-06-10T03:47:33;35.87;;;31.23;;
55312;SDS011;46892;45.668;11.756;2023-06-10T03:50:05;38.97;;;33.40;;
55312;SDS011;46892;45.668;11.756;2023-06-10T03:54:59;36.03;;;29.73;;
55312;SDS011;46892;45.668;11.756;2023-06-10T03:57:25;41.53;;;33.97;;
55312;SDS011;46892;45.668;11.756;2023-06-10T03:59:51;37.73;;;32.73;;
55312;SDS011;46892;45.668;11.756;2023-06-10T04:02:16;35.83;;;30.70;;
55312;SDS011;46892;45.668;11.756;2023-06-10T04:04:42;37.43;;;31.53;;
55312;SDS011;46892;45.668;11.756;2023-06-10T04:07:08;34.57;;;30.87;;
55312;SDS011;46892;45.668;11.756;2023-06-10T04:09:34;37.63;;;33.10;;
55312;SDS011;46892;45.668;11.756;2023-06-10T04:12:01;41.70;;;33.13;;
55312;SDS011;46892;45.668;11.756;2023-06-10T04:14:27;35.03;;;30.43;;
55312;SDS011;46892;45.668;11.756;2023-06-10T04:16:54;36.27;;;32.07;;
55312;SDS011;46892;45.668;11.756;2023-06-10T04:19:19;35.83;;;31.47;;
55312;SDS011;46892;45.668;11.756;2023-06-10T04:21:46;39.43;;;33.30;;
55312;SDS011;46892;45.668;11.756;2023-06-10T04:24:11;41.90;;;34.97;;
55312;SDS011;46892;45.668;11.756;2023-06-10T04:26:37;41.37;;;34.50;;
55312;SDS011;46892;45.668;11.756;2023-06-10T04:29:03;35.77;;;31.87;;
55312;SDS011;46892;45.668;11.756;2023-06-10T04:31:29;38.13;;;33.87;;
55312;SDS011;46892;45.668;11.756;2023-06-10T04:33:55;38.73;;;33.50;;
55312;SDS011;46892;45.668;11.756;2023-06-10T04:36:21;36.43;;;30.93;;
55312;SDS011;46892;45.668;11.756;2023-06-10T04:38:46;38.03;;;30.97;;
55312;SDS011;46892;45.668;11.756;2023-06-10T04:41:12;38.17;;;30.80;;
55312;SDS011;46892;45.668;11.756;2023-06-10T04:43:38;35.67;;;31.60;;
55312;SDS011;46892;45.668;11.756;2023-06-10T04:46:04;32.13;;;28.63;;
55312;SDS011;46892;45.668;11.756;2023-06-10T04:48:30;37.13;;;31.43;;
55312;SDS011;46892;45.668;11.756;2023-06-10T04:50:57;34.70;;;30.90;;
55312;SDS011;46892;45.668;11.756;2023-06-10T04:53:23;36.87;;;32.20;;
55312;SDS011;46892;45.668;11.756;2023-06-10T04:55:49;35.13;;;31.40;;
55312;SDS011;46892;45.668;11.756;2023-06-10T04:58:15;36.67;;;32.80;;
55312;SDS011;46892;45.668;11.756;2023-06-10T05:00:41;36.03;;;31.53;;
55312;SDS011;46892;45.668;11.756;2023-06-10T05:03:07;35.50;;;31.70;;
55312;SDS011;46892;45.668;11.756;2023-06-10T05:05:32;32.80;;;28.40;;
55312;SDS011;46892;45.668;11.756;2023-06-10T05:07:58;30.63;;;27.33;;
55312;SDS011;46892;45.668;11.756;2023-06-10T05:10:24;25.03;;;22.43;;
55312;SDS011;46892;45.668;11.756;2023-06-10T05:12:50;17.83;;;15.70;;
55312;SDS011;46892;45.668;11.756;2023-06-10T05:15:16;19.53;;;17.43;;
55312;SDS011;46892;45.668;11.756;2023-06-10T05:17:41;18.57;;;16.60;;
55312;SDS011;46892;45.668;11.756;2023-06-10T05:20:07;19.27;;;17.07;;
55312;SDS011;46892;45.668;11.756;2023-06-10T05:22:33;18.00;;;16.10;;
55312;SDS011;46892;45.668;11.756;2023-06-10T05:24:59;16.90;;;14.87;;
55312;SDS011;46892;45.668;11.756;2023-06-10T05:27:25;15.03;;;13.43;;
55312;SDS011;46892;45.668;11.756;2023-06-10T05:29:51;15.20;;;11.20;;
55312;SDS011;46892;45.668;11.756;2023-06-10T05:32:17;13.30;;;11.93;;
55312;SDS011;46892;45.668;11.756;2023-06-10T05:34:43;14.00;;;12.50;;
55312;SDS011;46892;45.668;11.756;2023-06-10T05:37:08;13.83;;;12.33;;
55312;SDS011;46892;45.668;11.756;2023-06-10T05:39:35;14.40;;;12.40;;
55312;SDS011;46892;45.668;11.756;2023-06-10T05:42:03;13.47;;;11.97;;
55312;SDS011;46892;45.668;11.756;2023-06-10T05:44:31;14.13;;;12.70;;
55312;SDS011;46892;45.668;11.756;2023-06-10T05:46:57;12.03;;;10.80;;
55312;SDS011;46892;45.668;11.756;2023-06-10T05:49:23;12.17;;;10.53;;
55312;SDS011;46892;45.668;11.756;2023-06-10T05:51:49;12.63;;;9.97;;
55312;SDS011;46892;45.668;11.756;2023-06-10T05:54:15;13.40;;;10.30;;
55312;SDS011;46892;45.668;11.756;2023-06-10T05:56:40;11.93;;;10.37;;
55312;SDS011;46892;45.668;11.756;2023-06-10T05:59:06;11.70;;;10.37;;
55312;SDS011;46892;45.668;11.756;2023-06-10T06:01:32;12.30;;;10.57;;
55312;SDS011;46892;45.668;11.756;2023-06-10T06:03:58;11.00;;;9.77;;
55312;SDS011;46892;45.668;11.756;2023-06-10T06:06:24;11.90;;;10.70;;
55312;SDS011;46892;45.668;11.756;2023-06-10T06:08:50;11.03;;;9.87;;
55312;SDS011;46892;45.668;11.756;2023-06-10T06:11:16;12.97;;;9.27;;
55312;SDS011;46892;45.668;11.756;2023-06-10T06:13:41;11.73;;;9.53;;
55312;SDS011;46892;45.668;11.756;2023-06-10T06:16:07;11.53;;;9.83;;
55312;SDS011;46892;45.668;11.756;2023-06-10T06:18:33;11.40;;;9.80;;
55312;SDS011;46892;45.668;11.756;2023-06-10T06:20:59;12.60;;;9.83;;
55312;SDS011;46892;45.668;11.756;2023-06-10T06:23:25;10.20;;;9.10;;
55312;SDS011;46892;45.668;11.756;2023-06-10T06:25:50;9.87;;;8.87;;
55312;SDS011;46892;45.668;11.756;2023-06-10T06:28:16;10.57;;;9.27;;
55312;SDS011;46892;45.668;11.756;2023-06-10T06:30:44;11.97;;;8.97;;
55312;SDS011;46892;45.668;11.756;2023-06-10T06:33:10;10.40;;;9.10;;
55312;SDS011;46892;45.668;11.756;2023-06-10T06:35:35;10.70;;;9.57;;
55312;SDS011;46892;45.668;11.756;2023-06-10T06:38:03;10.50;;;9.13;;
55312;SDS011;46892;45.668;11.756;2023-06-10T06:40:29;11.70;;;8.73;;
55312;SDS011;46892;45.668;11.756;2023-06-10T06:42:55;12.40;;;9.70;;
55312;SDS011;46892;45.668;11.756;2023-06-10T06:45:21;8.37;;;6.70;;
55312;SDS011;46892;45.668;11.756;2023-06-10T06:47:47;7.13;;;6.37;;
55312;SDS011;46892;45.668;11.756;2023-06-10T06:50:12;6.75;;;6.05;;
55312;SDS011;46892;45.668;11.756;2023-06-10T06:52:38;9.32;;;6.53;;
55312;SDS011;46892;45.668;11.756;2023-06-10T06:55:04;9.10;;;5.80;;
55312;SDS011;46892;45.668;11.756;2023-06-10T06:57:30;6.75;;;5.97;;
55312;SDS011;46892;45.668;11.756;2023-06-10T06:59:56;6.15;;;5.18;;
55312;SDS011;46892;45.668;11.756;2023-06-10T07:02:21;7.13;;;5.20;;
55312;SDS011;46892;45.668;11.756;2023-06-10T07:04:47;7.07;;;5.35;;
55312;SDS011;46892;45.668;11.756;2023-06-10T07:07:14;7.07;;;5.10;;
55312;SDS011;46892;45.668;11.756;2023-06-10T07:09:40;5.13;;;4.63;;
55312;SDS011;46892;45.668;11.756;2023-06-10T07:12:06;5.93;;;5.03;;
55312;SDS011;46892;45.668;11.756;2023-06-10T07:14:32;6.35;;;5.55;;
55312;SDS011;46892;45.668;11.756;2023-06-10T07:16:58;5.43;;;4.70;;
55312;SDS011;46892;45.668;11.756;2023-06-10T07:19:24;5.47;;;4.60;;
55312;SDS011;46892;45.668;11.756;2023-06-10T07:21:50;6.28;;;5.35;;
55312;SDS011;46892;45.668;11.756;2023-06-10T07:24:15;7.72;;;5.57;;
55312;SDS011;46892;45.668;11.756;2023-06-10T07:26:41;7.05;;;5.75;;
55312;SDS011;46892;45.668;11.756;2023-06-10T07:29:07;7.03;;;5.03;;
55312;SDS011;46892;45.668;11.756;2023-06-10T07:31:32;6.45;;;4.68;;
55312;SDS011;46892;45.668;11.756;2023-06-10T07:33:58;5.72;;;4.50;;
55312;SDS011;46892;45.668;11.756;2023-06-10T07:36:24;5.20;;;4.15;;
55312;SDS011;46892;45.668;11.756;2023-06-10T07:38:52;6.45;;;4.57;;
55312;SDS011;46892;45.668;11.756;2023-06-10T07:41:19;6.15;;;5.03;;
55312;SDS011;46892;45.668;11.756;2023-06-10T07:43:45;6.65;;;4.90;;
55312;SDS011;46892;45.668;11.756;2023-06-10T07:46:11;5.45;;;4.72;;
55312;SDS011;46892;45.668;11.756;2023-06-10T07:48:36;6.53;;;4.40;;
55312;SDS011;46892;45.668;11.756;2023-06-10T07:51:02;5.68;;;4.78;;
55312;SDS011;46892;45.668;11.756;2023-06-10T07:53:28;6.30;;;5.40;;
55312;SDS011;46892;45.668;11.756;2023-06-10T07:55:55;6.10;;;4.95;;
55312;SDS011;46892;45.668;11.756;2023-06-10T07:58:21;8.52;;;5.60;;
55312;SDS011;46892;45.668;11.756;2023-06-10T08:00:47;8.63;;;5.72;;
55312;SDS011;46892;45.668;11.756;2023-06-10T08:03:13;7.35;;;5.05;;
55312;SDS011;46892;45.668;11.756;2023-06-10T08:05:41;7.85;;;6.88;;
55312;SDS011;46892;45.668;11.756;2023-06-10T08:08:08;7.70;;;6.90;;
55312;SDS011;46892;45.668;11.756;2023-06-10T08:10:33;7.43;;;6.13;;
55312;SDS011;46892;45.668;11.756;2023-06-10T08:12:59;6.80;;;5.63;;
55312;SDS011;46892;45.668;11.756;2023-06-10T08:15:25;9.77;;;7.78;;
55312;SDS011;46892;45.668;11.756;2023-06-10T08:17:51;7.63;;;6.57;;
55312;SDS011;46892;45.668;11.756;2023-06-10T08:20:17;12.88;;;7.43;;
55312;SDS011;46892;45.668;11.756;2023-06-10T08:22:43;8.25;;;6.68;;
55312;SDS011;46892;45.668;11.756;2023-06-10T08:25:09;8.07;;;7.25;;
55312;SDS011;46892;45.668;11.756;2023-06-10T08:27:35;9.88;;;8.60;;
55312;SDS011;46892;45.668;11.756;2023-06-10T08:30:01;10.32;;;8.13;;
55312;SDS011;46892;45.668;11.756;2023-06-10T08:32:27;11.13;;;8.77;;
55312;SDS011;46892;45.668;11.756;2023-06-10T08:34:52;10.52;;;8.95;;
55312;SDS011;46892;45.668;11.756;2023-06-10T08:37:18;9.55;;;8.27;;
55312;SDS011;46892;45.668;11.756;2023-06-10T08:39:44;11.02;;;8.50;;
55312;SDS011;46892;45.668;11.756;2023-06-10T08:42:11;11.95;;;10.00;;
55312;SDS011;46892;45.668;11.756;2023-06-10T08:44:53;11.75;;;9.98;;
55312;SDS011;46892;45.668;11.756;2023-06-10T08:47:21;12.02;;;9.50;;
55312;SDS011;46892;45.668;11.756;2023-06-10T08:49:49;10.25;;;9.15;;
55312;SDS011;46892;45.668;11.756;2023-06-10T08:52:18;10.27;;;9.05;;
55312;SDS011;46892;45.668;11.756;2023-06-10T08:54:57;10.82;;;9.73;;
55312;SDS011;46892;45.668;11.756;2023-06-10T08:57:34;12.32;;;9.70;;
55312;SDS011;46892;45.668;11.756;2023-06-10T09:00:00;12.15;;;10.27;;
55312;SDS011;46892;45.668;11.756;2023-06-10T09:02:27;11.15;;;9.48;;
55312;SDS011;46892;45.668;11.756;2023-06-10T09:04:53;10.82;;;9.27;;
55312;SDS011;46892;45.668;11.756;2023-06-10T09:07:22;9.90;;;8.85;;
55312;SDS011;46892;45.668;11.756;2023-06-10T09:09:48;12.05;;;10.05;;
55312;SDS011;46892;45.668;11.756;2023-06-10T09:12:14;12.50;;;9.65;;
55312;SDS011;46892;45.668;11.756;2023-06-10T09:14:43;10.55;;;9.45;;
55312;SDS011;46892;45.668;11.756;2023-06-10T09:17:09;14.23;;;11.50;;
55312;SDS011;46892;45.668;11.756;2023-06-10T09:19:35;12.40;;;11.05;;
55312;SDS011;46892;45.668;11.756;2023-06-10T09:22:03;14.60;;;12.75;;
55312;SDS011;46892;45.668;11.756;2023-06-10T09:24:29;13.63;;;12.23;;
55312;SDS011;46892;45.668;11.756;2023-06-10T09:27:02;15.60;;;14.00;;
55312;SDS011;46892;45.668;11.756;2023-06-10T09:29:44;15.18;;;13.57;;
55312;SDS011;46892;45.668;11.756;2023-06-10T09:32:17;15.60;;;13.90;;
55312;SDS011;46892;45.668;11.756;2023-06-10T09:34:43;13.82;;;12.35;;
55312;SDS011;46892;45.668;11.756;2023-06-10T09:37:09;14.70;;;12.77;;
55312;SDS011;46892;45.668;11.756;2023-06-10T09:39:37;17.23;;;15.07;;
55312;SDS011;46892;45.668;11.756;2023-06-10T09:42:16;15.77;;;14.10;;
55312;SDS011;46892;45.668;11.756;2023-06-10T09:44:48;18.45;;;16.55;;
55312;SDS011;46892;45.668;11.756;2023-06-10T09:47:21;17.27;;;15.50;;
55312;SDS011;46892;45.668;11.756;2023-06-10T09:49:50;17.30;;;15.50;;
55312;SDS011;46892;45.668;11.756;2023-06-10T09:52:24;18.35;;;16.45;;
55312;SDS011;46892;45.668;11.756;2023-06-10T09:54:51;17.65;;;15.70;;
55312;SDS011;46892;45.668;11.756;2023-06-10T09:57:19;18.02;;;16.17;;
55312;SDS011;46892;45.668;11.756;2023-06-10T09:59:46;17.98;;;16.17;;
55312;SDS011;46892;45.668;11.756;2023-06-10T10:02:15;14.60;;;13.02;;
55312;SDS011;46892;45.668;11.756;2023-06-10T10:04:42;15.68;;;13.63;;
55312;SDS011;46892;45.668;11.756;2023-06-10T10:07:09;13.20;;;11.88;;
55312;SDS011;46892;45.668;11.756;2023-06-10T10:09:36;15.07;;;11.73;;
55312;SDS011;46892;45.668;11.756;2023-06-10T10:14:34;12.65;;;10.38;;
55312;SDS011;46892;45.668;11.756;2023-06-10T10:17:00;15.00;;;11.43;;
55312;SDS011;46892;45.668;11.756;2023-06-10T10:19:28;13.57;;;12.18;;
55312;SDS011;46892;45.668;11.756;2023-06-10T10:22:07;14.70;;;12.00;;
55312;SDS011;46892;45.668;11.756;2023-06-10T10:24:40;14.38;;;12.88;;
55312;SDS011;46892;45.668;11.756;2023-06-10T10:27:18;14.00;;;10.88;;
55312;SDS011;46892;45.668;11.756;2023-06-10T10:29:51;14.13;;;12.53;;
55312;SDS011;46892;45.668;11.756;2023-06-10T10:32:19;17.63;;;14.27;;
55312;SDS011;46892;45.668;11.756;2023-06-10T10:37:43;13.50;;;12.05;;
55312;SDS011;46892;45.668;11.756;2023-06-10T10:40:10;15.10;;;13.50;;
55312;SDS011;46892;45.668;11.756;2023-06-10T10:42:36;17.42;;;15.23;;
55312;SDS011;46892;45.668;11.756;2023-06-10T10:45:03;20.40;;;15.73;;
55312;SDS011;46892;45.668;11.756;2023-06-10T10:47:30;22.73;;;16.70;;
55312;SDS011;46892;45.668;11.756;2023-06-10T10:49:58;19.20;;;17.13;;
55312;SDS011;46892;45.668;11.756;2023-06-10T10:52:25;19.65;;;17.65;;
55312;SDS011;46892;45.668;11.756;2023-06-10T10:54:53;17.63;;;15.77;;
55312;SDS011;46892;45.668;11.756;2023-06-10T10:57:22;18.67;;;15.32;;
55312;SDS011;46892;45.668;11.756;2023-06-10T11:02:16;19.05;;;17.05;;
55312;SDS011;46892;45.668;11.756;2023-06-10T11:04:46;19.50;;;17.50;;
55312;SDS011;46892;45.668;11.756;2023-06-10T11:07:13;24.10;;;19.10;;
55312;SDS011;46892;45.668;11.756;2023-06-10T11:09:58;19.55;;;17.45;;
55312;SDS011;46892;45.668;11.756;2023-06-10T11:15:11;18.40;;;16.05;;
55312;SDS011;46892;45.668;11.756;2023-06-10T11:17:37;21.95;;;19.55;;
55312;SDS011;46892;45.668;11.756;2023-06-10T11:20:03;20.00;;;17.90;;
55312;SDS011;46892;45.668;11.756;2023-06-10T11:22:30;17.00;;;15.20;;
55312;SDS011;46892;45.668;11.756;2023-06-10T11:24:56;17.65;;;15.68;;
55312;SDS011;46892;45.668;11.756;2023-06-10T11:27:24;21.88;;;18.52;;
55312;SDS011;46892;45.668;11.756;2023-06-10T11:32:31;17.27;;;15.48;;
55312;SDS011;46892;45.668;11.756;2023-06-10T11:34:58;18.27;;;16.27;;
55312;SDS011;46892;45.668;11.756;2023-06-10T11:37:24;20.73;;;18.38;;
55312;SDS011;46892;45.668;11.756;2023-06-10T11:39:53;18.48;;;15.27;;
55312;SDS011;46892;45.668;11.756;2023-06-10T11:42:21;18.27;;;16.35;;
55312;SDS011;46892;45.668;11.756;2023-06-10T11:44:50;17.08;;;14.55;;
55312;SDS011;46892;45.668;11.756;2023-06-10T11:47:19;15.50;;;13.90;;
55312;SDS011;46892;45.668;11.756;2023-06-10T11:49:45;14.05;;;12.55;;
55312;SDS011;46892;45.668;11.756;2023-06-10T11:52:26;18.27;;;16.10;;
55312;SDS011;46892;45.668;11.756;2023-06-10T11:54:53;17.17;;;15.27;;
55312;SDS011;46892;45.668;11.756;2023-06-10T11:57:20;15.65;;;13.38;;
55312;SDS011;46892;45.668;11.756;2023-06-10T11:59:46;16.75;;;14.07;;
55312;SDS011;46892;45.668;11.756;2023-06-10T12:02:18;16.13;;;14.32;;
55312;SDS011;46892;45.668;11.756;2023-06-10T12:04:44;15.15;;;12.60;;
55312;SDS011;46892;45.668;11.756;2023-06-10T12:07:16;18.90;;;14.90;;
55312;SDS011;46892;45.668;11.756;2023-06-10T12:09:49;16.17;;;14.45;;
55312;SDS011;46892;45.668;11.756;2023-06-10T12:12:24;18.55;;;16.20;;
55312;SDS011;46892;45.668;11.756;2023-06-10T12:14:54;19.55;;;15.82;;
55312;SDS011;46892;45.668;11.756;2023-06-10T12:19:59;17.45;;;15.27;;
55312;SDS011;46892;45.668;11.756;2023-06-10T12:22:26;17.10;;;15.18;;
55312;SDS011;46892;45.668;11.756;2023-06-10T12:24:58;19.92;;;17.20;;
55312;SDS011;46892;45.668;11.756;2023-06-10T12:27:26;19.70;;;17.23;;
55312;SDS011;46892;45.668;11.756;2023-06-10T12:29:55;18.70;;;16.67;;
55312;SDS011;46892;45.668;11.756;2023-06-10T12:32:34;17.65;;;15.30;;
55312;SDS011;46892;45.668;11.756;2023-06-10T12:35:08;20.83;;;15.35;;
55312;SDS011;46892;45.668;11.756;2023-06-10T12:37:35;17.70;;;15.70;;
55312;SDS011;46892;45.668;11.756;2023-06-10T12:40:02;17.35;;;15.55;;
55312;SDS011;46892;45.668;11.756;2023-06-10T12:42:29;17.42;;;15.45;;
55312;SDS011;46892;45.668;11.756;2023-06-10T12:44:56;16.85;;;15.05;;
55312;SDS011;46892;45.668;11.756;2023-06-10T12:47:32;20.30;;;15.88;;
55312;SDS011;46892;45.668;11.756;2023-06-10T12:50:03;19.88;;;17.25;;
55312;SDS011;46892;45.668;11.756;2023-06-10T12:52:30;15.52;;;13.75;;
55312;SDS011;46892;45.668;11.756;2023-06-10T12:54:57;20.60;;;16.75;;
55312;SDS011;46892;45.668;11.756;2023-06-10T12:57:24;19.20;;;14.88;;
55312;SDS011;46892;45.668;11.756;2023-06-10T12:59:50;12.73;;;11.25;;
55312;SDS011;46892;45.668;11.756;2023-06-10T13:02:19;15.13;;;13.52;;
55312;SDS011;46892;45.668;11.756;2023-06-10T13:04:45;16.25;;;14.43;;
55312;SDS011;46892;45.668;11.756;2023-06-10T13:07:11;17.42;;;15.15;;
55312;SDS011;46892;45.668;11.756;2023-06-10T13:09:37;13.93;;;11.85;;
55312;SDS011;46892;45.668;11.756;2023-06-10T13:12:03;15.70;;;14.00;;
55312;SDS011;46892;45.668;11.756;2023-06-10T13:14:30;20.27;;;17.65;;
55312;SDS011;46892;45.668;11.756;2023-06-10T13:16:56;20.33;;;17.90;;
55312;SDS011;46892;45.668;11.756;2023-06-10T13:19:21;20.35;;;17.80;;
55312;SDS011;46892;45.668;11.756;2023-06-10T13:21:47;21.45;;;18.17;;
55312;SDS011;46892;45.668;11.756;2023-06-10T13:24:14;19.23;;;17.20;;
55312;SDS011;46892;45.668;11.756;2023-06-10T13:26:40;18.95;;;16.25;;
55312;SDS011;46892;45.668;11.756;2023-06-10T13:29:06;17.77;;;14.98;;
55312;SDS011;46892;45.668;11.756;2023-06-10T13:31:33;17.52;;;14.30;;
55312;SDS011;46892;45.668;11.756;2023-06-10T13:33:59;15.95;;;13.70;;
55312;SDS011;46892;45.668;11.756;2023-06-10T13:36:24;13.50;;;11.05;;
55312;SDS011;46892;45.668;11.756;2023-06-10T13:38:50;14.85;;;13.25;;
55312;SDS011;46892;45.668;11.756;2023-06-10T13:41:16;17.88;;;15.25;;
55312;SDS011;46892;45.668;11.756;2023-06-10T13:43:42;16.70;;;14.48;;
55312;SDS011;46892;45.668;11.756;2023-06-10T13:46:08;14.57;;;11.82;;
55312;SDS011;46892;45.668;11.756;2023-06-10T13:48:34;16.70;;;12.88;;
55312;SDS011;46892;45.668;11.756;2023-06-10T13:51:00;15.85;;;12.85;;
55312;SDS011;46892;45.668;11.756;2023-06-10T13:53:26;14.75;;;13.13;;
55312;SDS011;46892;45.668;11.756;2023-06-10T13:55:51;20.50;;;14.57;;
55312;SDS011;46892;45.668;11.756;2023-06-10T13:58:17;14.65;;;13.10;;
55312;SDS011;46892;45.668;11.756;2023-06-10T14:00:43;14.93;;;12.27;;
55312;SDS011;46892;45.668;11.756;2023-06-10T14:03:09;16.63;;;13.95;;
55312;SDS011;46892;45.668;11.756;2023-06-10T14:05:34;13.55;;;12.15;;
55312;SDS011;46892;45.668;11.756;2023-06-10T14:08:00;13.25;;;11.02;;
55312;SDS011;46892;45.668;11.756;2023-06-10T14:10:26;14.85;;;11.35;;
55312;SDS011;46892;45.668;11.756;2023-06-10T14:12:53;15.18;;;11.48;;
55312;SDS011;46892;45.668;11.756;2023-06-10T14:15:20;12.85;;;11.07;;
55312;SDS011;46892;45.668;11.756;2023-06-10T14:17:47;14.32;;;11.90;;
55312;SDS011;46892;45.668;11.756;2023-06-10T14:20:14;13.63;;;11.02;;
55312;SDS011;46892;45.668;11.756;2023-06-10T14:22:40;13.60;;;10.95;;
55312;SDS011;46892;45.668;11.756;2023-06-10T14:25:06;15.73;;;13.32;;
55312;SDS011;46892;45.668;11.756;2023-06-10T14:27:32;13.05;;;11.18;;
55312;SDS011;46892;45.668;11.756;2023-06-10T14:29:58;11.05;;;9.73;;
55312;SDS011;46892;45.668;11.756;2023-06-10T14:32:24;12.90;;;11.10;;
55312;SDS011;46892;45.668;11.756;2023-06-10T14:34:49;13.02;;;9.73;;
55312;SDS011;46892;45.668;11.756;2023-06-10T14:37:15;11.32;;;8.77;;
55312;SDS011;46892;45.668;11.756;2023-06-10T14:39:41;11.52;;;9.77;;